Time;durP1;ratioP1;P1;durP2;ratioP2;P2;SDS_P1;SDS_P2;PMS_P1;PMS_P2;Temp;Humidity;BMP_temperature;BMP_pressure;BME280_temperature;BME280_humidity;BME280_pressure;Samples;Min_cycle;Max_cycle;Signal;HPM_P1;HPM_P2
2022/09/22 00:01:23;;;;;;;12.20;5.25;;;;;;;9.05;100.00;99436.44;4412063;32;20022;-69
2022/09/22 00:03:53;;;;;;;13.70;6.18;;;;;;;8.85;100.00;99392.94;4416232;32;20041;-69
2022/09/22 00:06:21;;;;;;;13.45;5.82;;;;;;;8.73;100.00;99384.84;4415086;32;20023;-69
2022/09/22 00:08:50;;;;;;;10.32;6.22;;;;;;;9.02;100.00;99433.41;4415436;32;20060;-70
2022/09/22 00:11:20;;;;;;;10.98;5.87;;;;;;;8.68;100.00;99388.22;4415621;32;20796;-69
2022/09/22 00:13:50;;;;;;;12.02;5.82;;;;;;;8.96;100.00;99437.81;4407944;32;20349;-69
2022/09/22 00:16:20;;;;;;;12.52;6.82;;;;;;;8.97;100.00;99423.34;4406688;32;20054;-69
2022/09/22 00:18:47;;;;;;;12.05;5.47;;;;;;;8.27;100.00;99322.69;4415203;32;20050;-72
2022/09/22 00:21:16;;;;;;;11.12;6.65;;;;;;;9.00;100.00;99425.56;4403179;32;20402;-68
2022/09/22 00:23:43;;;;;;;15.73;5.90;;;;;;;8.99;100.00;99425.78;4406683;32;20064;-68
2022/09/22 00:26:12;;;;;;;12.37;5.75;;;;;;;8.96;100.00;99427.06;4415784;32;20038;-69
2022/09/22 00:28:40;;;;;;;26.80;11.38;;;;;;;8.63;100.00;99417.62;4423636;32;20080;-69
2022/09/22 00:31:25;;;;;;;15.82;9.38;;;;;;;8.94;100.00;99433.72;4427297;32;20071;-70
2022/09/22 00:33:53;;;;;;;14.95;6.45;;;;;;;9.02;100.00;99430.72;4431606;32;20363;-68
2022/09/22 00:36:24;;;;;;;13.25;5.95;;;;;;;8.30;100.00;99322.25;4431387;32;20106;-69
2022/09/22 00:38:52;;;;;;;10.40;6.05;;;;;;;8.78;100.00;99437.87;4431507;32;20042;-70
2022/09/22 00:41:26;;;;;;;14.50;5.93;;;;;;;8.58;100.00;99387.94;4384205;32;20208;-71
2022/09/22 00:44:14;;;;;;;11.05;5.60;;;;;;;8.75;100.00;99424.91;4385581;32;20169;-69
2022/09/22 00:46:44;;;;;;;14.07;6.68;;;;;;;8.76;100.00;99421.16;4384217;32;20439;-69
2022/09/22 00:49:13;;;;;;;12.13;5.32;;;;;;;8.71;100.00;99421.84;4370323;32;20036;-69
2022/09/22 00:55:57;;;;;;;12.98;5.18;;;;;;;8.81;100.00;99429.37;4370237;32;20587;-68
2022/09/22 00:58:35;;;;;;;11.35;5.90;;;;;;;8.47;100.00;99386.03;4370269;32;20066;-69
2022/09/22 01:01:03;;;;;;;11.43;5.32;;;;;;;8.69;100.00;99424.75;4368810;32;20048;-69
2022/09/22 01:03:30;;;;;;;8.98;5.35;;;;;;;8.77;100.00;99428.16;4368766;32;20053;-68
2022/09/22 01:06:00;;;;;;;9.52;5.22;;;;;;;8.37;100.00;99382.00;4370186;32;20116;-69
2022/09/22 01:08:28;;;;;;;19.70;5.68;;;;;;;8.31;100.00;99366.81;4367774;32;20070;-68
2022/09/22 01:10:56;;;;;;;16.02;5.80;;;;;;;8.59;100.00;99435.22;4368348;32;20052;-71
2022/09/22 01:14:02;;;;;;;13.45;5.85;;;;;;;8.57;100.00;99429.25;4405876;32;20077;-68
2022/09/22 01:16:31;;;;;;;13.20;5.28;;;;;;;8.56;100.00;99427.63;4413404;32;20064;-67
2022/09/22 01:19:24;;;;;;;12.00;5.07;;;;;;;8.50;100.00;99420.47;4414474;32;20092;-69
2022/09/22 01:22:09;;;;;;;9.80;5.68;;;;;;;8.43;100.00;99408.97;4444264;32;20037;-69
2022/09/22 01:24:41;;;;;;;11.12;4.97;;;;;;;8.44;100.00;99429.41;4445929;32;20407;-68
2022/09/22 01:27:19;;;;;;;;;;;;;;;8.37;100.00;99429.47;4446296;32;20042;-68
2022/09/22 01:30:09;;;;;;;7.37;4.68;;;;;;;8.42;100.00;99426.12;4404824;32;19950;-68
2022/09/22 01:32:49;;;;;;;12.63;6.72;;;;;;;7.99;100.00;99380.41;4413683;32;20391;-69
2022/09/22 01:35:49;;;;;;;8.18;5.22;;;;;;;8.29;100.00;99422.53;4383325;32;20322;-68
2022/09/22 01:38:30;;;;;;;11.98;5.55;;;;;;;8.27;100.00;99419.28;4384413;32;20086;-72
2022/09/22 01:41:07;;;;;;;8.18;5.45;;;;;;;7.93;100.00;99367.91;4384698;32;20188;-69
2022/09/22 01:43:55;;;;;;;9.10;5.40;;;;;;;8.16;100.00;99414.66;4384517;32;20043;-68
2022/09/22 01:46:28;;;;;;;19.92;7.03;;;;;;;8.16;100.00;99412.00;4384952;32;20308;-69
2022/09/22 01:48:59;;;;;;;11.05;5.53;;;;;;;8.12;100.00;99417.00;4384188;32;20050;-69
2022/09/22 01:51:49;;;;;;;7.93;5.22;;;;;;;7.31;100.00;99292.91;4384622;32;20057;-69
2022/09/22 01:54:38;;;;;;;13.32;5.43;;;;;;;8.02;100.00;99416.66;4384016;32;20051;-68
2022/09/22 01:57:12;;;;;;;9.80;5.80;;;;;;;7.98;100.00;99410.94;4368769;32;20027;-73
2022/09/22 01:59:42;;;;;;;8.77;5.25;;;;;;;8.06;100.00;99407.16;4379002;32;20461;-68
2022/09/22 02:02:18;;;;;;;13.68;5.85;;;;;;;8.22;100.00;99426.34;4398798;32;20034;-70
2022/09/22 02:04:53;;;;;;;8.85;5.90;;;;;;;7.97;100.00;99377.13;4399228;32;20043;-73
2022/09/22 02:07:25;;;;;;;16.48;5.85;;;;;;;8.16;100.00;99395.91;4421878;32;20172;-69
2022/09/22 02:09:52;;;;;;;9.93;5.87;;;;;;;8.21;100.00;99412.13;4430068;32;20038;-71
2022/09/22 02:12:18;;;;;;;14.68;7.53;;;;;;;8.02;100.00;99376.44;4430156;32;20018;-69
2022/09/22 02:14:45;;;;;;;18.17;8.63;;;;;;;8.22;100.00;99416.47;4428111;32;20022;-69
2022/09/22 02:17:14;;;;;;;16.02;6.22;;;;;;;8.23;100.00;99417.25;4429782;32;20456;-69
2022/09/22 02:19:40;;;;;;;10.50;5.93;;;;;;;7.90;100.00;99371.03;4429431;32;20033;-70
2022/09/22 02:22:09;;;;;;;15.35;6.78;;;;;;;8.23;100.00;99418.06;4427885;32;20091;-69
2022/09/22 02:24:41;;;;;;;14.85;6.70;;;;;;;8.26;100.00;99416.81;4429676;32;20018;-69
2022/09/22 02:27:14;;;;;;;10.85;6.30;;;;;;;7.85;100.00;99362.84;4427536;32;20026;-68
2022/09/22 02:29:48;;;;;;;16.65;6.87;;;;;;;7.86;100.00;99364.47;4428651;32;20046;-70
2022/09/22 02:32:16;;;;;;;21.45;10.45;;;;;;;7.39;100.00;99299.84;4424926;32;20046;-70
2022/09/22 02:34:44;;;;;;;14.70;8.48;;;;;;;8.19;100.00;99411.53;4428870;32;20034;-69
2022/09/22 02:37:36;;;;;;;12.80;8.00;;;;;;;7.86;100.00;99369.81;4431728;32;20168;-68
2022/09/22 02:40:08;;;;;;;9.95;6.70;;;;;;;8.17;100.00;99425.19;4429859;32;20076;-69
2022/09/22 02:42:44;;;;;;;16.65;8.55;;;;;;;7.81;100.00;99378.53;4431195;32;20037;-69
2022/09/22 02:45:20;;;;;;;13.55;7.20;;;;;;;7.82;100.00;99376.69;4430346;32;20063;-68
2022/09/22 02:47:56;;;;;;;20.65;9.75;;;;;;;8.10;100.00;99423.59;4430896;32;20095;-69
2022/09/22 02:50:30;;;;;;;19.27;8.68;;;;;;;8.60;100.00;99375.13;4431560;32;20236;-69
2022/09/22 02:53:17;;;;;;;12.35;7.65;;;;;;;8.76;100.00;99351.34;4431552;32;20099;-70
2022/09/22 02:55:45;;;;;;;13.07;7.80;;;;;;;9.42;100.00;99425.50;4430146;32;20060;-73
2022/09/22 02:58:14;;;;;;;24.02;8.05;;;;;;;8.74;100.00;99311.31;4431139;32;20046;-69
2022/09/22 03:00:41;;;;;;;12.90;7.57;;;;;;;9.35;100.00;99427.50;4431774;32;20039;-70
2022/09/22 03:03:10;;;;;;;15.38;8.07;;;;;;;9.29;100.00;99404.25;4431290;32;20406;-71
2022/09/22 03:05:37;;;;;;;13.02;7.75;;;;;;;9.27;100.00;99420.59;4430627;32;20037;-69
2022/09/22 03:08:04;;;;;;;16.02;9.10;;;;;;;9.03;100.00;99414.37;4429149;32;20290;-69
2022/09/22 03:10:30;;;;;;;19.58;8.50;;;;;;;8.89;100.00;99372.66;4430127;32;20068;-70
2022/09/22 03:12:57;;;;;;;17.92;8.50;;;;;;;8.82;100.00;99371.91;4431551;32;20098;-69
2022/09/22 03:15:23;;;;;;;15.50;9.23;;;;;;;8.78;100.00;99376.94;4431593;32;20060;-69
2022/09/22 03:17:50;;;;;;;16.83;8.60;;;;;;;9.01;100.00;99380.72;4429665;32;20038;-73
2022/09/22 03:20:16;;;;;;;13.57;8.80;;;;;;;9.26;100.00;99418.12;4430848;32;20214;-70
2022/09/22 03:22:42;;;;;;;16.58;9.57;;;;;;;9.03;100.00;99368.69;4431327;32;20054;-69
2022/09/22 03:25:10;;;;;;;12.65;8.27;;;;;;;9.31;100.00;99407.50;4431314;32;20093;-69
2022/09/22 03:27:37;;;;;;;15.63;9.25;;;;;;;9.04;100.00;99369.50;4431389;32;20026;-69
2022/09/22 03:30:05;;;;;;;14.00;8.68;;;;;;;9.00;100.00;99374.53;4429407;32;20043;-70
2022/09/22 03:32:32;;;;;;;12.27;8.65;;;;;;;9.17;100.00;99412.28;4432789;32;20071;-70
2022/09/22 03:34:58;;;;;;;14.73;7.50;;;;;;;9.08;100.00;99398.37;4433120;32;20060;-70
2022/09/22 03:37:26;;;;;;;15.00;9.10;;;;;;;9.21;100.00;99407.28;4429364;32;20042;-69
2022/09/22 03:40:05;;;;;;;14.27;8.20;;;;;;;9.06;100.00;99400.47;4431833;32;20502;-70
2022/09/22 03:42:34;;;;;;;15.18;8.75;;;;;;;9.18;100.00;99413.09;4433941;32;20034;-69
2022/09/22 03:45:03;;;;;;;21.33;10.40;;;;;;;9.12;100.00;99411.34;4434133;32;20046;-69
2022/09/22 03:47:29;;;;;;;24.30;7.68;;;;;;;9.15;100.00;99411.69;4433968;32;20039;-70
2022/09/22 03:49:55;;;;;;;12.75;7.60;;;;;;;8.86;100.00;99371.22;4416659;32;20050;-70
2022/09/22 03:52:22;;;;;;;15.25;8.10;;;;;;;9.22;100.00;99414.25;4418535;32;20321;-70
2022/09/22 03:54:50;;;;;;;13.98;7.72;;;;;;;8.47;100.00;99310.88;4418380;32;20034;-69
2022/09/22 03:57:17;;;;;;;15.95;10.23;;;;;;;8.98;100.00;99371.25;4416909;32;20406;-70
2022/09/22 03:59:43;;;;;;;19.33;9.65;;;;;;;9.14;100.00;99406.53;4417618;32;20421;-70
2022/09/22 04:02:10;;;;;;;16.23;8.55;;;;;;;8.53;100.00;99309.97;4397150;32;20034;-70
2022/09/22 04:04:36;;;;;;;14.27;8.18;;;;;;;8.86;100.00;99373.09;4400801;32;20378;-70
2022/09/22 04:07:03;;;;;;;18.60;6.75;;;;;;;9.09;100.00;99404.56;4370281;32;20055;-70
2022/09/22 04:09:29;;;;;;;11.02;6.97;;;;;;;9.03;100.00;99403.62;4349922;32;20035;-70
2022/09/22 04:11:55;;;;;;;10.75;6.68;;;;;;;8.95;100.00;99390.53;4325090;33;20114;-70
2022/09/22 04:14:22;;;;;;;15.95;6.55;;;;;;;9.12;100.00;99414.03;4316603;33;20049;-70
2022/09/22 04:16:48;;;;;;;10.30;6.82;;;;;;;8.66;100.00;99344.69;4311497;33;20318;-71
2022/09/22 04:19:15;;;;;;;12.05;6.85;;;;;;;9.07;100.00;99410.16;4311212;33;20059;-70
2022/09/22 04:21:42;;;;;;;18.00;8.02;;;;;;;9.07;100.00;99412.84;4311155;33;20044;-70
2022/09/22 04:24:10;;;;;;;14.38;6.90;;;;;;;8.78;100.00;99366.19;4310682;33;20519;-69
2022/09/22 04:26:38;;;;;;;13.68;6.80;;;;;;;8.91;100.00;99413.50;4309518;33;20051;-69
2022/09/22 04:29:11;;;;;;;81.37;8.57;;;;;;;8.89;100.00;99404.88;4311165;33;20081;-69
2022/09/22 04:31:37;;;;;;;42.97;8.73;;;;;;;8.75;100.00;99396.19;4309980;33;20114;-69
2022/09/22 04:34:04;;;;;;;48.92;8.07;;;;;;;8.41;100.00;99408.38;4311143;33;20079;-69
2022/09/22 04:36:30;;;;;;;47.62;7.45;;;;;;;8.35;100.00;99384.09;4307672;33;20056;-69
2022/09/22 04:38:57;;;;;;;129.63;8.30;;;;;;;8.58;100.00;99425.53;4338697;32;20383;-68
2022/09/22 04:41:23;;;;;;;103.28;7.93;;;;;;;8.49;100.00;99418.84;4392636;32;20048;-69
2022/09/22 04:43:50;;;;;;;89.25;7.65;;;;;;;8.21;100.00;99382.63;4400284;32;20499;-68
2022/09/22 04:46:16;;;;;;;196.05;10.05;;;;;;;8.41;100.00;99413.75;4399278;32;20534;-71
2022/09/22 04:48:42;;;;;;;165.27;11.77;;;;;;;8.47;100.00;99435.19;4404503;32;20015;-68
2022/09/22 04:51:09;;;;;;;256.38;14.38;;;;;;;7.92;100.00;99336.75;4432270;32;20088;-69
2022/09/22 04:53:35;;;;;;;157.07;11.73;;;;;;;8.22;100.00;99384.25;4433276;32;20030;-69
2022/09/22 04:56:01;;;;;;;222.45;13.50;;;;;;;8.62;100.00;99434.75;4433069;32;20026;-69
2022/09/22 04:58:28;;;;;;;193.65;13.10;;;;;;;8.30;100.00;99394.69;4431396;32;20046;-72
2022/09/22 05:00:54;;;;;;;137.10;14.70;;;;;;;7.81;100.00;99324.09;4427138;32;20099;-70
2022/09/22 05:03:21;;;;;;;152.15;13.18;;;;;;;8.48;100.00;99425.25;4417322;32;20060;-68
2022/09/22 05:05:47;;;;;;;107.75;11.15;;;;;;;8.47;100.00;99428.97;4417388;32;20423;-68
2022/09/22 05:08:15;;;;;;;52.03;10.35;;;;;;;8.39;100.00;99426.56;4417494;32;20043;-70
2022/09/22 05:10:41;;;;;;;40.12;11.60;;;;;;;8.20;100.00;99386.38;4419378;32;20034;-71
2022/09/22 05:13:07;;;;;;;68.70;12.05;;;;;;;7.97;100.00;99339.56;4429505;32;20080;-70
2022/09/22 05:15:34;;;;;;;43.70;11.10;;;;;;;8.18;100.00;99372.34;4428683;32;20030;-69
2022/09/22 05:18:00;;;;;;;21.70;9.55;;;;;;;8.34;100.00;99433.44;4430528;32;20030;-69
2022/09/22 05:20:27;;;;;;;34.13;10.55;;;;;;;8.46;100.00;99424.66;4429948;32;20038;-70
2022/09/22 05:22:53;;;;;;;22.42;10.32;;;;;;;8.27;100.00;99387.09;4428730;32;20025;-71
2022/09/22 05:25:20;;;;;;;15.75;9.75;;;;;;;8.33;100.00;99385.38;4430301;32;20030;-70
2022/09/22 05:27:51;;;;;;;23.62;9.80;;;;;;;8.81;100.00;99432.06;4430660;32;20047;-70
2022/09/22 05:30:20;;;;;;;15.20;9.05;;;;;;;8.52;100.00;99356.62;4430045;32;20038;-70
2022/09/22 05:32:47;;;;;;;21.02;9.77;;;;;;;9.12;100.00;99430.94;4428150;32;20026;-69
2022/09/22 05:35:19;;;;;;;20.37;9.07;;;;;;;8.60;100.00;99320.59;4428615;32;20087;-69
2022/09/22 05:37:53;;;;;;;19.45;8.82;;;;;;;9.39;100.00;99422.47;4430034;32;20046;-70
2022/09/22 05:40:22;;;;;;;19.92;9.23;;;;;;;9.44;100.00;99434.19;4399538;32;20046;-70
2022/09/22 05:42:50;;;;;;;14.32;8.73;;;;;;;9.48;100.00;99439.06;4398075;32;20440;-73
2022/09/22 05:45:18;;;;;;;23.25;9.32;;;;;;;9.39;100.00;99393.72;4398819;32;20078;-69
2022/09/22 05:47:45;;;;;;;15.52;9.05;;;;;;;9.41;100.00;99394.31;4398221;32;20076;-69
2022/09/22 05:50:13;;;;;;;18.60;8.70;;;;;;;9.50;100.00;99389.41;4402711;32;20342;-70
2022/09/22 05:52:39;;;;;;;19.83;9.80;;;;;;;9.68;100.00;99430.69;4412824;32;20059;-71
2022/09/22 05:55:07;;;;;;;18.52;9.45;;;;;;;9.43;100.00;99389.53;4396406;32;20076;-69
2022/09/22 05:57:34;;;;;;;16.42;8.32;;;;;;;9.81;100.00;99439.34;4398532;32;20038;-69
2022/09/22 06:00:00;;;;;;;14.13;8.93;;;;;;;9.81;100.00;99439.34;4368174;32;20024;-69
2022/09/22 06:02:27;;;;;;;16.45;8.48;;;;;;;9.76;100.00;99388.09;4369593;32;20420;-69
2022/09/22 06:04:53;;;;;;;12.27;8.35;;;;;;;9.95;100.00;99396.03;4366929;32;20027;-70
2022/09/22 06:07:20;;;;;;;14.82;8.45;;;;;;;10.24;100.00;99441.84;4369044;32;20023;-69
2022/09/22 06:09:47;;;;;;;17.08;8.75;;;;;;;9.70;100.00;99390.91;4369206;32;20062;-70
2022/09/22 06:12:14;;;;;;;17.08;8.40;;;;;;;10.03;100.00;99429.84;4381998;32;20061;-69
2022/09/22 06:14:41;;;;;;;13.38;8.35;;;;;;;9.97;100.00;99420.81;4352563;32;20043;-69
2022/09/22 06:17:11;;;;;;;16.10;8.35;;;;;;;9.96;100.00;99397.69;4352961;32;20083;-68
2022/09/22 06:19:38;;;;;;;14.10;8.55;;;;;;;10.30;100.00;99440.91;4352290;32;20317;-69
2022/09/22 06:22:05;;;;;;;20.92;7.37;;;;;;;10.10;100.00;99408.97;4353933;32;20023;-69
2022/09/22 06:24:31;;;;;;;19.60;7.30;;;;;;;10.05;100.00;99407.03;4352132;32;20048;-69
2022/09/22 06:26:58;;;;;;;15.20;7.50;;;;;;;10.07;100.00;99399.53;4378456;32;20170;-71
2022/09/22 06:29:25;;;;;;;14.82;7.05;;;;;;;10.51;100.00;99453.75;4366623;32;20023;-68
2022/09/22 06:31:51;;;;;;;8.38;6.85;;;;;;;10.24;100.00;99409.53;4380036;32;20305;-68
2022/09/22 06:34:18;;;;;;;18.20;8.45;;;;;;;10.57;100.00;99453.84;4383678;32;20052;-69
2022/09/22 06:36:44;;;;;;;12.55;6.90;;;;;;;10.37;100.00;99409.31;4382176;32;20023;-69
2022/09/22 06:39:11;;;;;;;8.98;6.72;;;;;;;10.18;100.00;99412.13;4382629;32;20048;-69
2022/09/22 06:41:38;;;;;;;10.10;6.70;;;;;;;10.09;100.00;99413.56;4381903;32;20027;-69
2022/09/22 06:44:11;;;;;;;10.63;6.37;;;;;;;10.21;100.00;99410.84;4382964;32;20147;-70
2022/09/22 06:46:38;;;;;;;12.88;7.18;;;;;;;10.24;100.00;99415.75;4408724;32;20520;-69
2022/09/22 06:49:04;;;;;;;11.30;7.68;;;;;;;10.26;100.00;99418.19;4411790;32;20056;-69
2022/09/22 06:51:33;;;;;;;12.40;7.50;;;;;;;10.32;100.00;99450.41;4410629;32;20026;-72
2022/09/22 06:54:02;;;;;;;15.05;7.78;;;;;;;10.02;100.00;99391.37;4413823;32;20291;-69
2022/09/22 06:56:33;;;;;;;12.48;7.00;;;;;;;10.64;100.00;99462.59;4413920;32;20027;-68
2022/09/22 06:59:13;;;;;;;12.80;6.75;;;;;;;10.38;100.00;99416.31;4383898;32;20047;-69
2022/09/22 07:01:40;;;;;;;11.68;7.20;;;;;;;10.61;100.00;99414.59;4383166;32;20027;-69
2022/09/22 07:04:08;;;;;;;7.93;6.47;;;;;;;10.56;100.00;99423.41;4383446;32;20476;-69
2022/09/22 07:06:36;;;;;;;12.40;6.93;;;;;;;10.51;100.00;99405.28;4394376;32;20030;-69
2022/09/22 07:09:04;;;;;;;17.20;6.97;;;;;;;10.50;100.00;99419.81;4417117;32;20411;-70
2022/09/22 07:11:30;;;;;;;13.27;7.22;;;;;;;10.51;100.00;99420.63;4415363;32;20317;-69
2022/09/22 07:13:57;;;;;;;12.75;7.45;;;;;;;10.94;100.00;99456.16;4401232;32;20388;-69
2022/09/22 07:16:25;;;;;;;8.35;6.87;;;;;;;10.66;100.00;99422.81;4401714;32;20069;-69
2022/09/22 07:18:53;;;;;;;10.07;6.47;;;;;;;10.82;100.00;99416.63;4401165;32;20052;-68
2022/09/22 07:21:26;;;;;;;11.30;6.70;;;;;;;11.17;100.00;99461.44;4399543;32;20170;-70
2022/09/22 07:23:54;;;;;;;14.77;6.57;;;;;;;11.24;100.00;99456.69;4401855;32;20179;-69
2022/09/22 07:26:25;;;;;;;12.13;6.35;;;;;;;11.31;100.00;99461.13;4401807;32;20410;-69
2022/09/22 07:28:52;;;;;;;10.30;7.07;;;;;;;11.13;100.00;99417.16;4401612;32;20174;-69
2022/09/22 07:31:20;;;;;;;13.15;7.07;;;;;;;11.46;100.00;99426.31;4430765;32;20059;-70
2022/09/22 07:33:47;;;;;;;10.45;7.32;;;;;;;11.77;100.00;99459.16;4431367;32;20223;-70
2022/09/22 07:36:27;;;;;;;13.40;7.45;;;;;;;11.81;100.00;99433.31;4430579;32;20342;-69
2022/09/22 07:38:56;;;;;;;11.07;7.80;;;;;;;12.04;100.00;99456.59;4430401;32;20060;-69
2022/09/22 07:41:28;;;;;;;10.57;7.50;;;;;;;11.74;100.00;99405.69;4428020;32;20018;-70
2022/09/22 07:43:55;;;;;;;;;;;;;;;11.86;100.00;99463.06;4432055;32;20499;-69
2022/09/22 07:46:22;;;;;;;13.98;7.85;;;;;;;11.94;100.00;99462.66;4433954;32;19992;-69
2022/09/22 07:48:49;;;;;;;13.20;7.50;;;;;;;12.02;100.00;99455.22;4433952;32;20367;-69
2022/09/22 07:51:21;;;;;;;10.85;6.75;;;;;;;12.04;100.00;99453.09;4432667;32;20046;-72
2022/09/22 07:53:56;;;;;;;12.45;7.43;;;;;;;11.80;100.00;99469.44;4434095;32;20207;-69
2022/09/22 07:56:29;;;;;;;9.30;7.00;;;;;;;11.88;100.00;99471.72;4433696;32;20386;-69
2022/09/22 07:58:56;;;;;;;15.35;8.20;;;;;;;11.26;100.00;99379.12;4433422;32;20059;-73
2022/09/22 08:01:25;;;;;;;14.73;7.95;;;;;;;11.34;100.00;99417.50;4415283;32;20035;-69
2022/09/22 08:03:51;;;;;;;14.82;9.10;;;;;;;11.69;100.00;99467.66;4415941;32;20100;-69
2022/09/22 08:06:19;;;;;;;14.30;7.90;;;;;;;11.67;100.00;99459.00;4416207;32;20079;-68
2022/09/22 08:08:52;;;;;;;11.15;7.45;;;;;;;11.55;100.00;99429.41;4414265;32;20052;-69
2022/09/22 08:11:21;;;;;;;11.80;8.30;;;;;;;11.69;100.00;99417.22;4414274;32;20027;-69
2022/09/22 08:13:49;;;;;;;9.40;7.70;;;;;;;11.67;100.00;99422.06;4415946;32;20062;-70
2022/09/22 08:16:17;;;;;;;11.05;7.97;;;;;;;11.78;100.00;99458.09;4416285;32;20154;-69
2022/09/22 08:18:48;;;;;;;17.58;8.77;;;;;;;11.95;100.00;99448.12;4415063;32;20406;-69
2022/09/22 08:21:18;;;;;;;12.47;7.70;;;;;;;11.54;100.00;99353.09;4414507;32;20379;-72
2022/09/22 08:23:45;;;;;;;11.75;8.93;;;;;;;11.90;100.00;99431.84;4415733;32;20068;-69
2022/09/22 08:26:11;;;;;;;11.50;8.25;;;;;;;12.06;100.00;99483.34;4415821;32;20027;-69
2022/09/22 08:28:37;;;;;;;10.35;7.20;;;;;;;12.25;100.00;99471.19;4415703;32;20193;-68
2022/09/22 08:31:11;;;;;;;9.13;5.78;;;;;;;11.92;100.00;99429.72;4415371;32;20107;-71
2022/09/22 08:33:39;;;;;;;8.38;6.53;;;;;;;11.40;100.00;99394.94;4432789;32;20539;-68
2022/09/22 08:36:06;;;;;;;9.45;6.72;;;;;;;11.42;100.00;99398.19;4431775;32;20379;-69
2022/09/22 08:38:33;;;;;;;7.37;6.10;;;;;;;11.91;100.00;99479.31;4433053;32;20368;-70
2022/09/22 08:41:05;;;;;;;7.47;6.28;;;;;;;11.81;100.00;99468.41;4415056;32;20056;-70
2022/09/22 08:43:32;;;;;;;9.68;7.75;;;;;;;11.60;100.00;99438.41;4413167;32;20046;-70
2022/09/22 08:46:02;;;;;;;12.93;6.62;;;;;;;11.79;100.00;99470.50;4414807;32;20046;-70
2022/09/22 08:54:11;;;;;;;11.20;6.20;;;;;;;12.01;100.00;99480.56;4413945;32;20046;-68
2022/09/22 08:56:45;;;;;;;8.82;5.90;;;;;;;12.06;100.00;99461.75;4415183;32;20082;-73
2022/09/22 08:59:21;;;;;;;8.30;6.00;;;;;;;12.14;100.00;99480.22;4415192;32;20127;-70
2022/09/22 09:02:31;;;;;;;7.30;5.78;;;;;;;11.60;100.00;99402.53;4415462;32;20103;-70
2022/09/22 09:05:25;;;;;;;12.23;7.75;;;;;;;12.18;100.00;99465.16;4414832;32;20087;-69
2022/09/22 09:08:10;;;;;;;11.05;5.20;;;;;;;12.63;100.00;99479.50;4412767;32;20112;-70
2022/09/22 09:11:01;;;;;;;5.82;4.68;;;;;;;12.81;100.00;99472.94;4415303;32;20583;-69
2022/09/22 09:13:58;;;;;;;9.02;4.28;;;;;;;12.87;100.00;99461.13;4431028;32;20038;-70
2022/09/22 09:16:47;;;;;;;4.97;4.18;;;;;;;12.97;100.00;99465.81;4429055;32;20056;-68
2022/09/22 09:19:26;;;;;;;9.57;4.70;;;;;;;12.67;100.00;99476.03;4432552;32;20060;-70
2022/09/22 09:21:56;;;;;;;7.90;5.60;;;;;;;12.24;100.00;99472.28;4415223;32;20027;-68
2022/09/22 09:24:31;;;;;;;5.35;4.00;;;;;;;12.16;100.00;99418.72;4412852;32;20440;-72
2022/09/22 09:27:07;;;;;;;5.32;4.37;;;;;;;12.08;100.00;99421.84;4415049;32;20314;-68
2022/09/22 09:29:44;;;;;;;7.53;5.30;;;;;;;12.30;100.00;99468.56;4414417;32;20043;-68
2022/09/22 09:32:24;;;;;;;10.88;5.25;;;;;;;12.60;100.00;99472.69;4413279;32;20173;-73
2022/09/22 09:34:50;;;;;;;7.22;4.30;;;;;;;12.45;100.00;99423.91;4413647;32;20126;-69
2022/09/22 09:37:17;;;;;;;10.18;4.70;;;;;;;12.56;100.00;99390.56;4415076;32;20026;-70
2022/09/22 09:39:44;;;;;;;6.35;3.92;;;;;;;13.10;100.00;99432.97;4414874;32;20027;-69
2022/09/22 09:42:21;;;;;;;3.75;3.45;;;;;;;13.23;100.00;99466.87;4413242;32;20064;-75
2022/09/22 09:44:52;;;;;;;3.12;2.87;;;;;;;13.24;100.00;99468.50;4414370;32;20046;-69
2022/09/22 09:47:28;;;;;;;4.00;3.62;;;;;;;13.09;100.00;99432.13;4414947;32;20048;-69
2022/09/22 09:49:54;;;;;;;7.68;3.83;;;;;;;13.33;100.00;99468.91;4412839;32;20428;-73
2022/09/22 09:52:24;;;;;;;5.20;3.55;;;;;;;13.02;100.00;99395.56;4419221;32;20076;-69
2022/09/22 09:54:59;;;;;;;7.12;3.12;;;;;;;13.58;100.00;99457.47;4431250;32;20458;-69
2022/09/22 09:57:28;;;;;;;3.03;2.78;;;;;;;13.58;100.00;99471.00;4432306;32;20034;-69
2022/09/22 10:00:32;;;;;;;3.47;2.97;;;;;;;13.39;100.00;99467.87;4430272;32;20041;-71
2022/09/22 10:03:25;;;;;;;7.45;2.62;;;;;;;13.25;100.00;99467.44;4430923;32;20364;-69
2022/09/22 10:05:58;;;;;;;4.62;2.22;;;;;;;13.41;100.00;99444.87;4432121;32;20068;-70
2022/09/22 10:08:27;;;;;;;2.28;2.12;;;;;;;13.85;100.00;99445.72;4432186;32;20056;-69
2022/09/22 10:10:57;;;;;;;2.58;2.25;;;;;;;13.42;100.00;99365.38;4431025;32;20051;-74
2022/09/22 10:13:35;;;;;;;4.53;2.53;;;;;;;13.62;100.00;99420.69;4431980;32;20405;-70
2022/09/22 10:16:22;;;;;;;1.83;1.73;;;;;;;13.75;100.00;99422.13;4430637;32;20068;-69
2022/09/22 10:19:00;;;;;;;2.90;2.17;;;;;;;14.24;100.00;99456.25;4430582;32;20068;-70
2022/09/22 10:21:27;;;;;;;1.85;1.75;;;;;;;14.28;100.00;99451.94;4431990;32;20077;-69
2022/09/22 10:23:59;;;;;;;2.45;2.25;;;;;;;14.52;100.00;99455.84;4431832;32;20414;-69
2022/09/22 10:26:30;;;;;;;1.70;1.62;;;;;;;14.28;100.00;99395.88;4429057;32;20060;-72
2022/09/22 10:29:18;;;;;;;7.07;2.08;;;;;;;14.78;100.00;99417.19;4431745;32;20079;-70
2022/09/22 10:32:04;;;;;;;2.12;2.03;;;;;;;15.11;100.00;99461.16;4431962;32;20379;-68
2022/09/22 10:34:36;;;;;;;4.65;2.70;;;;;;;15.24;100.00;99464.16;4431223;32;20113;-69
2022/09/22 10:37:09;;;;;;;1.80;1.50;;;;;;;14.83;100.00;99423.44;4431220;32;20030;-69
2022/09/22 10:39:46;;;;;;;2.62;1.83;;;;;;;14.91;100.00;99453.81;4431902;32;20072;-69
2022/09/22 10:42:33;;;;;;;1.77;1.67;;;;;;;14.85;100.00;99424.00;4435887;32;20295;-70
2022/09/22 10:45:11;;;;;;;1.40;1.40;;;;;;;15.20;100.00;99402.59;4435168;32;20038;-70
2022/09/22 10:47:45;;;;;;;2.65;1.95;;;;;;;15.64;100.00;99450.88;4419047;32;20256;-69
2022/09/22 10:50:30;;;;;;;1.73;1.62;;;;;;;15.82;100.00;99408.78;4419081;32;20071;-70
2022/09/22 10:53:44;;;;;;;1.80;1.48;;;;;;;15.90;100.00;99448.16;4416121;32;20052;-72
2022/09/22 10:56:37;;;;;;;2.15;2.03;;;;;;;15.85;100.00;99440.03;4418337;32;20448;-69
2022/09/22 10:59:15;;;;;;;1.62;1.52;;;;;;;15.39;100.00;99438.13;4419123;32;20023;-69
2022/09/22 11:02:11;;;;;;;1.73;1.62;;;;;;;15.04;100.00;99447.88;4419243;32;20055;-69
2022/09/22 11:05:02;;;;;;;2.33;1.70;;;;;;;14.75;100.00;99434.78;4418671;32;20163;-70
2022/09/22 11:13:17;;;;;;;2.05;1.95;;;;;;;16.01;100.00;99438.91;4385658;32;20065;-71
2022/09/22 11:15:53;;;;;;;3.28;1.95;;;;;;;16.84;100.00;99423.06;4388728;32;20031;-69
2022/09/22 11:18:32;;;;;;;3.47;1.70;;;;;;;17.14;100.00;99426.69;4396971;32;20048;-70
2022/09/22 11:21:43;;;;;;;1.70;1.10;;;;;;;16.88;100.00;99399.66;4419105;32;20123;-69
2022/09/22 11:24:36;;;;;;;1.27;1.25;;;;;;;16.07;100.00;99437.00;4418599;32;20038;-69
2022/09/22 11:27:03;;;;;;;1.35;1.33;;;;;;;15.51;100.00;99402.56;4417364;32;20043;-69
2022/09/22 11:29:59;;;;;;;1.30;1.30;;;;;;;15.05;100.00;99433.22;4417908;32;20048;-72
2022/09/22 11:32:41;;;;;;;1.58;1.48;;;;;;;15.22;100.00;99441.94;4389143;32;20346;-69
2022/09/22 11:35:26;;;;;;;1.60;1.50;;;;;;;15.50;100.00;99431.59;4385962;32;20085;-70
2022/09/22 11:38:18;;;;;;;1.70;1.60;;;;;;;16.21;100.00;99429.87;4391634;32;20176;-70
2022/09/22 11:40:54;;;;;;;;;;;;;;;16.82;100.00;99425.25;4403292;32;20467;-70
2022/09/22 11:43:38;;;;;;;0.70;0.70;;;;;;;16.30;100.00;99436.34;4402210;32;19934;-69
2022/09/22 11:46:24;;;;;;;0.82;0.82;;;;;;;15.48;100.00;99393.09;4402369;32;20054;-73
2022/09/22 11:49:21;;;;;;;0.95;0.95;;;;;;;16.17;100.00;99426.88;4403339;32;20034;-69
2022/09/22 11:52:20;;;;;;;3.55;1.10;;;;;;;15.89;100.00;99431.06;4402340;32;20106;-69
2022/09/22 11:55:25;;;;;;;1.35;1.15;;;;;;;16.13;100.00;99425.84;4401319;32;20044;-70
2022/09/22 11:58:00;;;;;;;1.08;1.08;;;;;;;16.28;100.00;99422.22;4393728;32;20051;-70
2022/09/22 12:00:35;;;;;;;1.50;1.50;;;;;;;15.90;100.00;99435.38;4400945;32;20433;-69
2022/09/22 12:03:10;;;;;;;1.87;1.20;;;;;;;15.57;100.00;99396.03;4410799;32;20114;-70
2022/09/22 12:05:41;;;;;;;1.23;1.20;;;;;;;15.52;100.00;99426.72;4433586;32;20034;-70